Time;durP1;ratioP1;P1;durP2;ratioP2;P2;SDS_P1;SDS_P2;PMS_P1;PMS_P2;Temp;Humidity;BMP_temperature;BMP_pressure;BME280_temperature;BME280_humidity;BME280_pressure;Samples;Min_cycle;Max_cycle;Signal;HPM_P1;HPM_P2
2023/09/29 00:01:27;;;;;;;;;;;14.10;99.90;;;;;;5088947;28;19983;-73
2023/09/29 00:03:54;;;;;;;;;;;14.10;99.90;;;;;;5085893;28;19921;-74
2023/09/29 00:06:20;;;;;;;;;;;14.00;99.90;;;;;;5087435;28;19999;-74
2023/09/29 00:08:47;;;;;;;;;;;14.00;99.90;;;;;;5090404;28;19988;-74
2023/09/29 00:11:14;;;;;;;;;;;14.00;99.90;;;;;;5089296;28;19921;-74
2023/09/29 00:13:41;;;;;;;;;;;14.00;99.90;;;;;;5085697;28;19920;-74
2023/09/29 00:16:09;;;;;;;;;;;13.90;99.90;;;;;;5085084;28;19952;-74
2023/09/29 00:18:37;;;;;;;;;;;13.90;99.90;;;;;;5085336;28;20269;-73
2023/09/29 00:21:03;;;;;;;;;;;13.90;99.90;;;;;;5085704;28;19920;-74
2023/09/29 00:23:30;;;;;;;;;;;13.80;99.90;;;;;;5084256;28;19955;-73
2023/09/29 00:25:56;;;;;;;;;;;13.80;99.90;;;;;;5085040;28;20113;-74
2023/09/29 00:28:23;;;;;;;;;;;13.80;99.90;;;;;;5085539;28;19920;-72
2023/09/29 00:30:50;;;;;;;;;;;13.80;99.90;;;;;;5085538;28;20121;-74
2023/09/29 00:33:18;;;;;;;;;;;13.70;99.90;;;;;;5085218;28;19956;-74
2023/09/29 00:35:44;;;;;;;;;;;13.70;99.90;;;;;;5084663;28;19920;-74
2023/09/29 00:38:11;;;;;;;;;;;13.70;99.90;;;;;;5085370;28;19987;-74
2023/09/29 00:40:37;;;;;;;;;;;13.70;99.90;;;;;;5084961;28;19940;-74
2023/09/29 00:43:04;;;;;;;;;;;13.60;99.90;;;;;;5085350;28;19992;-74
2023/09/29 00:45:32;;;;;;;;;;;13.60;99.90;;;;;;5083615;28;19927;-73
2023/09/29 00:48:03;;;;;;;;;;;13.60;99.90;;;;;;5084879;28;19952;-74
2023/09/29 00:50:31;;;;;;;;;;;13.50;99.90;;;;;;5085157;28;20149;-74
2023/09/29 00:52:59;;;;;;;;;;;13.50;99.90;;;;;;5080411;28;20182;-74
2023/09/29 00:55:27;;;;;;;;;;;13.40;99.90;;;;;;5084488;28;19936;-73
2023/09/29 00:57:57;;;;;;;;;;;13.30;99.90;;;;;;5085046;28;19920;-74
2023/09/29 01:00:30;;;;;;;;;;;13.40;99.90;;;;;;5084513;28;19947;-74
2023/09/29 01:02:56;;;;;;;;;;;13.30;99.90;;;;;;5079907;28;19932;-74
2023/09/29 01:05:23;;;;;;;;;;;13.30;99.90;;;;;;5089278;28;19927;-74
2023/09/29 01:07:53;;;;;;;;;;;13.30;99.90;;;;;;5088710;28;20389;-74
2023/09/29 01:10:20;;;;;;;;;;;13.20;99.90;;;;;;5084548;28;19959;-74
2023/09/29 01:12:48;;;;;;;;;;;13.20;99.90;;;;;;5084594;28;19952;-74
2023/09/29 01:15:17;;;;;;;;;;;13.20;99.90;;;;;;5083852;28;20344;-74
2023/09/29 01:17:44;;;;;;;;;;;13.20;99.90;;;;;;5084590;28;19927;-73
2023/09/29 01:20:15;;;;;;;;;;;13.10;99.90;;;;;;5088353;28;19991;-73
2023/09/29 01:22:46;;;;;;;;;;;13.10;99.90;;;;;;5093233;28;19973;-74
2023/09/29 01:25:15;;;;;;;;;;;13.10;99.90;;;;;;5086985;28;20214;-73
2023/09/29 01:27:41;;;;;;;;;;;13.00;99.90;;;;;;5084368;28;19983;-73
2023/09/29 01:30:09;;;;;;;;;;;13.00;99.90;;;;;;5084320;28;19983;-73
2023/09/29 01:32:35;;;;;;;;;;;13.00;99.90;;;;;;5084965;28;19956;-72
2023/09/29 01:35:03;;;;;;;;;;;13.00;99.90;;;;;;5097151;28;19920;-73
2023/09/29 01:37:29;;;;;;;;;;;12.90;99.90;;;;;;5089611;28;19927;-73
2023/09/29 01:39:56;;;;;;;;;;;12.90;99.90;;;;;;5083966;28;19958;-73
2023/09/29 01:42:24;;;;;;;;;;;12.90;99.90;;;;;;5083917;28;19925;-73
2023/09/29 01:44:51;;;;;;;;;;;12.90;99.90;;;;;;5083617;28;19935;-72
2023/09/29 01:47:17;;;;;;;;;;;12.90;99.90;;;;;;5088718;28;19927;-73
2023/09/29 01:49:44;;;;;;;;;;;12.80;99.90;;;;;;5083944;28;19920;-73
2023/09/29 01:52:11;;;;;;;;;;;12.80;99.90;;;;;;5083874;28;19959;-73
2023/09/29 01:54:38;;;;;;;;;;;12.80;99.90;;;;;;5086849;28;19974;-73
2023/09/29 01:57:05;;;;;;;;;;;12.70;99.90;;;;;;5083222;28;19995;-72
2023/09/29 01:59:33;;;;;;;;;;;12.80;99.90;;;;;;5083730;28;19920;-73
2023/09/29 02:01:59;;;;;;;;;;;12.80;99.90;;;;;;5083695;28;19951;-72
2023/09/29 02:04:26;;;;;;;;;;;12.70;99.90;;;;;;5083444;28;19920;-73
2023/09/29 02:06:53;;;;;;;;;;;12.70;99.90;;;;;;5083593;28;19921;-73
2023/09/29 02:09:20;;;;;;;;;;;12.70;99.90;;;;;;5083481;28;19928;-73
2023/09/29 02:11:48;;;;;;;;;;;12.70;99.90;;;;;;5083731;28;19987;-72
2023/09/29 02:14:14;;;;;;;;;;;12.60;99.90;;;;;;5083626;28;19966;-71
2023/09/29 02:16:42;;;;;;;;;;;12.70;99.90;;;;;;5082992;28;20274;-73
2023/09/29 02:19:10;;;;;;;;;;;12.60;99.90;;;;;;5083672;28;19959;-73
2023/09/29 02:21:36;;;;;;;;;;;12.60;99.90;;;;;;5088662;28;19952;-73
2023/09/29 02:24:04;;;;;;;;;;;12.60;99.90;;;;;;5082386;28;19955;-73
2023/09/29 02:26:30;;;;;;;;;;;12.60;99.90;;;;;;5085950;28;19924;-72
2023/09/29 02:28:57;;;;;;;;;;;12.50;99.90;;;;;;5083638;28;19920;-73
2023/09/29 02:31:26;;;;;;;;;;;12.50;99.90;;;;;;5088288;28;19926;-73
2023/09/29 02:33:54;;;;;;;;;;;12.50;99.90;;;;;;5086907;28;19984;-73
2023/09/29 02:36:21;;;;;;;;;;;12.50;99.90;;;;;;5083002;28;19952;-73
2023/09/29 02:38:48;;;;;;;;;;;12.40;99.90;;;;;;5083345;28;19996;-73
2023/09/29 02:41:15;;;;;;;;;;;12.40;99.90;;;;;;5083260;28;19931;-73
2023/09/29 02:43:41;;;;;;;;;;;12.30;99.90;;;;;;5083432;28;19996;-73
2023/09/29 02:46:14;;;;;;;;;;;12.30;99.90;;;;;;5082733;28;19948;-73
2023/09/29 02:48:41;;;;;;;;;;;12.30;99.90;;;;;;5083332;28;20095;-74
2023/09/29 02:51:15;;;;;;;;;;;12.30;99.90;;;;;;5083175;28;19927;-74
2023/09/29 02:53:42;;;;;;;;;;;12.20;99.90;;;;;;5083366;28;19970;-74
2023/09/29 02:56:11;;;;;;;;;;;12.20;99.90;;;;;;5085825;28;19951;-73
2023/09/29 02:58:38;;;;;;;;;;;12.20;99.90;;;;;;5083222;28;19924;-74
2023/09/29 03:01:07;;;;;;;;;;;12.20;99.90;;;;;;5087709;28;19959;-74
2023/09/29 03:03:34;;;;;;;;;;;12.20;99.90;;;;;;5080239;28;19921;-74
2023/09/29 03:06:00;;;;;;;;;;;12.10;99.90;;;;;;5082460;28;19927;-72
2023/09/29 03:08:29;;;;;;;;;;;12.10;99.90;;;;;;5083321;28;20266;-74
2023/09/29 03:10:55;;;;;;;;;;;12.10;99.90;;;;;;5087030;28;19920;-74
2023/09/29 03:13:22;;;;;;;;;;;12.10;99.90;;;;;;5091896;28;19920;-74
2023/09/29 03:15:49;;;;;;;;;;;12.10;99.90;;;;;;5096305;28;20005;-72
2023/09/29 03:18:15;;;;;;;;;;;12.00;99.90;;;;;;5086659;28;19924;-74
2023/09/29 03:20:42;;;;;;;;;;;12.00;99.90;;;;;;5086819;28;20117;-74
2023/09/29 03:23:09;;;;;;;;;;;11.90;99.90;;;;;;5086424;28;20153;-73
2023/09/29 03:25:38;;;;;;;;;;;11.90;99.90;;;;;;5086055;28;19979;-74
2023/09/29 03:28:04;;;;;;;;;;;11.90;99.90;;;;;;5086545;28;19960;-73
2023/09/29 03:30:32;;;;;;;;;;;11.90;99.90;;;;;;5086508;28;19959;-73
2023/09/29 03:32:58;;;;;;;;;;;11.90;99.90;;;;;;5086614;28;19924;-75
2023/09/29 03:35:25;;;;;;;;;;;11.90;99.90;;;;;;5086039;28;20286;-72
2023/09/29 03:37:52;;;;;;;;;;;11.90;99.90;;;;;;5086447;28;19987;-74
2023/09/29 03:40:19;;;;;;;;;;;11.90;99.90;;;;;;5086226;28;19920;-74
2023/09/29 03:42:47;;;;;;;;;;;11.90;99.90;;;;;;5086394;28;19921;-74
2023/09/29 03:45:14;;;;;;;;;;;11.90;99.90;;;;;;5085560;28;19924;-74
2023/09/29 03:47:41;;;;;;;;;;;11.80;99.90;;;;;;5086293;28;20209;-74
2023/09/29 03:50:08;;;;;;;;;;;11.80;99.90;;;;;;5086377;28;19944;-73
2023/09/29 03:52:35;;;;;;;;;;;11.80;99.90;;;;;;5086234;28;19962;-74
2023/09/29 03:55:02;;;;;;;;;;;11.80;99.90;;;;;;5085460;28;20210;-73
2023/09/29 03:57:28;;;;;;;;;;;11.80;99.90;;;;;;5086327;28;19927;-74
2023/09/29 03:59:56;;;;;;;;;;;11.70;99.90;;;;;;5085692;28;20262;-74
2023/09/29 04:02:23;;;;;;;;;;;11.70;99.90;;;;;;5085823;28;19987;-74
2023/09/29 04:04:49;;;;;;;;;;;11.70;99.90;;;;;;5085841;28;19954;-74
2023/09/29 04:07:16;;;;;;;;;;;11.70;99.90;;;;;;5085961;28;19920;-74
2023/09/29 04:09:43;;;;;;;;;;;11.70;99.90;;;;;;5085584;28;20264;-74
2023/09/29 04:12:10;;;;;;;;;;;11.70;99.90;;;;;;5085877;28;19987;-74
2023/09/29 04:14:36;;;;;;;;;;;11.70;99.90;;;;;;5088770;28;19943;-74
2023/09/29 04:17:05;;;;;;;;;;;11.70;99.90;;;;;;5085653;28;19988;-74
2023/09/29 04:19:32;;;;;;;;;;;11.70;99.90;;;;;;5085513;28;19962;-74
2023/09/29 04:21:59;;;;;;;;;;;11.60;99.90;;;;;;5085430;28;19920;-74
2023/09/29 04:24:27;;;;;;;;;;;11.60;99.90;;;;;;5085421;28;19921;-74
2023/09/29 04:26:53;;;;;;;;;;;11.60;99.90;;;;;;5085146;28;19927;-74
2023/09/29 04:29:20;;;;;;;;;;;11.50;99.90;;;;;;5085340;28;20096;-74
2023/09/29 04:31:47;;;;;;;;;;;11.50;99.90;;;;;;5092381;28;19920;-73
2023/09/29 04:34:15;;;;;;;;;;;11.50;99.90;;;;;;5089926;28;19995;-74
2023/09/29 04:36:42;;;;;;;;;;;11.50;99.90;;;;;;5090412;28;19952;-74
2023/09/29 04:39:09;;;;;;;;;;;11.50;99.90;;;;;;5085482;28;19920;-74
2023/09/29 04:41:35;;;;;;;;;;;11.60;99.90;;;;;;5085025;28;19921;-74
2023/09/29 04:44:05;;;;;;;;;;;11.50;99.90;;;;;;5085448;28;19920;-74
2023/09/29 04:46:32;;;;;;;;;;;11.50;99.90;;;;;;5081106;28;19933;-72
2023/09/29 04:48:58;;;;;;;;;;;11.50;99.90;;;;;;5088433;28;19955;-74
2023/09/29 04:51:26;;;;;;;;;;;11.50;99.90;;;;;;5085259;28;19971;-74
2023/09/29 04:53:53;;;;;;;;;;;11.50;99.90;;;;;;5084665;28;20229;-74
2023/09/29 04:56:19;;;;;;;;;;;11.50;99.90;;;;;;5084064;28;19926;-73
2023/09/29 04:58:46;;;;;;;;;;;11.40;99.90;;;;;;5091980;28;20285;-74
2023/09/29 05:01:17;;;;;;;;;;;11.40;99.90;;;;;;5092118;28;19928;-73
2023/09/29 05:03:44;;;;;;;;;;;11.40;99.90;;;;;;5084968;28;19943;-73
2023/09/29 05:06:10;;;;;;;;;;;11.30;99.90;;;;;;5084057;28;20210;-73
2023/09/29 05:08:39;;;;;;;;;;;11.30;99.90;;;;;;5084696;28;19948;-74
2023/09/29 05:11:05;;;;;;;;;;;11.30;99.90;;;;;;5084493;28;19921;-74
2023/09/29 05:13:32;;;;;;;;;;;11.30;99.90;;;;;;5088121;28;19952;-73
2023/09/29 05:15:59;;;;;;;;;;;11.30;99.90;;;;;;5083773;28;19924;-74
2023/09/29 05:18:26;;;;;;;;;;;11.30;99.90;;;;;;5084357;28;20153;-71
2023/09/29 05:20:52;;;;;;;;;;;11.30;99.90;;;;;;5084629;28;19976;-71
2023/09/29 05:23:19;;;;;;;;;;;11.30;99.90;;;;;;5084417;28;19979;-71
2023/09/29 05:25:47;;;;;;;;;;;11.30;99.90;;;;;;5083786;28;19983;-71
2023/09/29 05:28:14;;;;;;;;;;;11.30;99.90;;;;;;5084403;28;19921;-72
2023/09/29 05:30:44;;;;;;;;;;;11.30;99.90;;;;;;5083916;28;19921;-71
2023/09/29 05:33:11;;;;;;;;;;;11.30;99.90;;;;;;5083941;28;20177;-72
2023/09/29 05:35:37;;;;;;;;;;;11.30;99.90;;;;;;5083839;28;19958;-72
2023/09/29 05:38:04;;;;;;;;;;;11.30;99.90;;;;;;5083991;28;20230;-73
2023/09/29 05:40:31;;;;;;;;;;;11.30;99.90;;;;;;5080417;28;19956;-73
2023/09/29 05:42:59;;;;;;;;;;;11.30;99.90;;;;;;5083609;28;20189;-73
2023/09/29 05:45:25;;;;;;;;;;;11.30;99.90;;;;;;5083326;28;19948;-72
2023/09/29 05:47:52;;;;;;;;;;;11.30;99.90;;;;;;5083864;28;19943;-72
2023/09/29 05:50:18;;;;;;;;;;;11.40;99.90;;;;;;5083651;28;19920;-74
2023/09/29 05:52:45;;;;;;;;;;;11.40;99.90;;;;;;5083612;28;20221;-74
2023/09/29 05:55:12;;;;;;;;;;;11.40;99.90;;;;;;5081363;28;20314;-74
2023/09/29 05:57:39;;;;;;;;;;;11.40;99.90;;;;;;5082737;28;19987;-74
2023/09/29 06:00:13;;;;;;;;;;;11.50;99.90;;;;;;5082383;28;19983;-74
2023/09/29 06:02:40;;;;;;;;;;;11.40;99.90;;;;;;5080458;28;19921;-74
2023/09/29 06:05:06;;;;;;;;;;;11.50;99.90;;;;;;5082212;28;20004;-74
2023/09/29 06:07:33;;;;;;;;;;;11.50;99.90;;;;;;5080445;28;20110;-74
2023/09/29 06:10:00;;;;;;;;;;;11.50;99.90;;;;;;5086441;28;20158;-74
2023/09/29 06:12:27;;;;;;;;;;;11.50;99.90;;;;;;5088904;28;20281;-74
2023/09/29 06:14:53;;;;;;;;;;;11.50;99.90;;;;;;5082169;28;19952;-74
2023/09/29 06:17:22;;;;;;;;;;;11.50;99.90;;;;;;5087255;28;19920;-74
2023/09/29 06:19:49;;;;;;;;;;;11.60;99.90;;;;;;5085083;28;19920;-74
2023/09/29 06:22:15;;;;;;;;;;;11.50;99.90;;;;;;5083187;28;19963;-74
2023/09/29 06:24:43;;;;;;;;;;;11.70;99.90;;;;;;5083053;28;19987;-74
2023/09/29 06:27:10;;;;;;;;;;;11.60;99.90;;;;;;5082803;28;19921;-74
2023/09/29 06:29:39;;;;;;;;;;;11.70;99.90;;;;;;5083113;28;20007;-74
2023/09/29 06:32:05;;;;;;;;;;;11.70;99.90;;;;;;5087355;28;19958;-74
2023/09/29 06:34:33;;;;;;;;;;;11.70;99.90;;;;;;5079844;28;20087;-74
2023/09/29 06:37:00;;;;;;;;;;;11.70;99.90;;;;;;5082835;28;19984;-74
2023/09/29 06:39:27;;;;;;;;;;;11.80;99.90;;;;;;5082451;28;19920;-74
2023/09/29 06:41:53;;;;;;;;;;;11.80;99.90;;;;;;5082983;28;21275;-74
2023/09/29 06:44:20;;;;;;;;;;;11.90;99.90;;;;;;5086058;28;19926;-74
2023/09/29 06:46:46;;;;;;;;;;;12.00;99.90;;;;;;5088313;28;19920;-74
2023/09/29 06:49:13;;;;;;;;;;;12.00;99.90;;;;;;5086562;28;19921;-74
2023/09/29 06:51:41;;;;;;;;;;;12.10;99.90;;;;;;5091251;28;20218;-74
2023/09/29 06:54:08;;;;;;;;;;;12.20;99.90;;;;;;5086654;28;19997;-74
2023/09/29 06:56:34;;;;;;;;;;;12.30;99.90;;;;;;5086551;28;19998;-74
2023/09/29 06:59:01;;;;;;;;;;;12.40;99.90;;;;;;5087192;28;20091;-74
2023/09/29 07:01:27;;;;;;;;;;;12.50;99.90;;;;;;5085810;28;19927;-74
2023/09/29 07:03:54;;;;;;;;;;;12.70;99.90;;;;;;5086060;28;19920;-74
2023/09/29 07:06:23;;;;;;;;;;;12.80;99.90;;;;;;5084890;28;19987;-74
2023/09/29 07:08:51;;;;;;;;;;;12.90;99.90;;;;;;5092055;28;19920;-74
2023/09/29 07:11:17;;;;;;;;;;;13.00;99.90;;;;;;5082033;28;19952;-74
2023/09/29 07:13:44;;;;;;;;;;;13.10;99.90;;;;;;5086080;28;19958;-74
2023/09/29 07:16:11;;;;;;;;;;;13.20;99.90;;;;;;5086011;28;19991;-74
2023/09/29 07:18:37;;;;;;;;;;;13.30;99.90;;;;;;5086653;28;19987;-74
2023/09/29 07:21:04;;;;;;;;;;;13.40;99.90;;;;;;5089826;28;19926;-75
2023/09/29 07:23:33;;;;;;;;;;;13.50;99.90;;;;;;5085871;28;20134;-74
2023/09/29 07:26:01;;;;;;;;;;;13.70;99.90;;;;;;5081664;28;19987;-73
2023/09/29 07:28:28;;;;;;;;;;;13.80;99.90;;;;;;5085986;28;19959;-73
2023/09/29 07:30:55;;;;;;;;;;;13.90;99.90;;;;;;5091733;28;20114;-74
2023/09/29 07:33:21;;;;;;;;;;;14.10;99.90;;;;;;5087403;28;19920;-74
2023/09/29 07:35:48;;;;;;;;;;;14.30;99.90;;;;;;5092742;28;19920;-74
2023/09/29 07:38:17;;;;;;;;;;;14.40;99.90;;;;;;5091968;28;19921;-74
2023/09/29 07:40:43;;;;;;;;;;;14.60;99.90;;;;;;5085388;28;19920;-74
2023/09/29 07:43:11;;;;;;;;;;;14.70;99.90;;;;;;5085871;28;19924;-74
2023/09/29 07:45:39;;;;;;;;;;;14.90;99.90;;;;;;5084765;28;19987;-74
2023/09/29 07:48:06;;;;;;;;;;;15.00;99.90;;;;;;5086104;28;20206;-74
2023/09/29 07:50:33;;;;;;;;;;;15.20;99.90;;;;;;5086071;28;20167;-74
2023/09/29 07:53:00;;;;;;;;;;;15.30;99.90;;;;;;5086351;28;19987;-74
2023/09/29 07:55:27;;;;;;;;;;;15.50;99.90;;;;;;5083933;28;19995;-74
2023/09/29 07:57:54;;;;;;;;;;;15.70;99.90;;;;;;5093966;28;19927;-74
2023/09/29 08:00:21;;;;;;;;;;;15.90;99.90;;;;;;5082804;28;20117;-74
2023/09/29 08:02:48;;;;;;;;;;;16.10;99.90;;;;;;5078491;28;20179;-74
2023/09/29 08:05:15;;;;;;;;;;;16.30;99.90;;;;;;5081401;28;19921;-74
2023/09/29 08:07:42;;;;;;;;;;;16.50;99.90;;;;;;5085794;28;19966;-74
2023/09/29 08:10:10;;;;;;;;;;;16.70;99.90;;;;;;5085163;28;19955;-74
2023/09/29 08:12:37;;;;;;;;;;;16.80;99.90;;;;;;5091009;28;20204;-74
2023/09/29 08:15:05;;;;;;;;;;;17.00;99.90;;;;;;5085020;28;19920;-74
2023/09/29 08:17:33;;;;;;;;;;;17.10;99.90;;;;;;5089898;28;19920;-74
2023/09/29 08:19:59;;;;;;;;;;;17.30;99.90;;;;;;5083793;28;19920;-75
2023/09/29 08:22:26;;;;;;;;;;;17.40;99.90;;;;;;5085496;28;19920;-74
2023/09/29 08:24:53;;;;;;;;;;;17.50;99.90;;;;;;5089311;28;19999;-74
2023/09/29 08:27:19;;;;;;;;;;;17.60;99.90;;;;;;5080475;28;19947;-74
2023/09/29 08:29:46;;;;;;;;;;;17.70;99.90;;;;;;5084501;28;19987;-75
2023/09/29 08:32:12;;;;;;;;;;;17.80;99.90;;;;;;5090203;28;19921;-75
2023/09/29 08:34:40;;;;;;;;;;;17.90;99.90;;;;;;5083850;28;19920;-75
2023/09/29 08:37:07;;;;;;;;;;;18.10;99.90;;;;;;5084324;28;19947;-75
2023/09/29 08:39:34;;;;;;;;;;;18.10;99.90;;;;;;5084399;28;19983;-75
2023/09/29 08:42:02;;;;;;;;;;;18.20;99.90;;;;;;5084960;28;19987;-75
2023/09/29 08:44:29;;;;;;;;;;;18.20;99.90;;;;;;5080376;28;19920;-74
2023/09/29 08:47:00;;;;;;;;;;;18.40;99.90;;;;;;5079835;28;19988;-75
2023/09/29 08:49:27;;;;;;;;;;;18.40;99.90;;;;;;5084998;28;19952;-75
2023/09/29 08:51:55;;;;;;;;;;;18.50;99.90;;;;;;5084387;28;19947;-75
2023/09/29 08:54:23;;;;;;;;;;;18.60;99.90;;;;;;5083964;28;19951;-75
2023/09/29 08:56:50;;;;;;;;;;;18.70;99.90;;;;;;5089248;28;19962;-75
2023/09/29 08:59:17;;;;;;;;;;;18.80;99.90;;;;;;5084511;28;19952;-75
2023/09/29 09:01:46;;;;;;;;;;;19.00;99.90;;;;;;5084072;28;19924;-75
2023/09/29 09:04:12;;;;;;;;;;;19.10;99.90;;;;;;5084689;28;20110;-74
2023/09/29 09:06:40;;;;;;;;;;;19.30;99.90;;;;;;5082859;28;19987;-75
2023/09/29 09:09:09;;;;;;;;;;;19.50;99.90;;;;;;5084110;28;19928;-74
2023/09/29 09:11:41;;;;;;;;;;;19.60;99.90;;;;;;5084055;28;20196;-75
2023/09/29 09:14:10;;;;;;;;;;;19.70;99.90;;;;;;5084292;28;19920;-74
2023/09/29 09:16:38;;;;;;;;;;;19.90;99.90;;;;;;5083934;28;19973;-74
2023/09/29 09:19:09;;;;;;;;;;;20.00;99.90;;;;;;5084129;28;19920;-72
2023/09/29 09:21:35;;;;;;;;;;;20.20;99.90;;;;;;5083977;28;19958;-73
2023/09/29 09:24:02;;;;;;;;;;;20.30;99.90;;;;;;5078797;28;19999;-75
2023/09/29 09:26:30;;;;;;;;;;;20.50;99.90;;;;;;5082989;28;20118;-75
2023/09/29 09:29:07;;;;;;;;;;;20.60;99.90;;;;;;5078749;28;19970;-75
2023/09/29 09:31:42;;;;;;;;;;;20.70;99.90;;;;;;5087196;28;19921;-74
2023/09/29 09:34:09;;;;;;;;;;;20.80;99.90;;;;;;5083890;28;19927;-74
2023/09/29 09:36:44;;;;;;;;;;;20.90;99.90;;;;;;5082777;28;19920;-74
2023/09/29 09:39:11;;;;;;;;;;;20.90;99.90;;;;;;5084450;28;19963;-74
2023/09/29 09:41:41;;;;;;;;;;;21.00;99.90;;;;;;5093581;28;19958;-75
2023/09/29 09:44:09;;;;;;;;;;;21.10;99.90;;;;;;5083522;28;20133;-74
2023/09/29 09:46:38;;;;;;;;;;;21.20;99.90;;;;;;5083012;28;19920;-75
2023/09/29 09:49:13;;;;;;;;;;;21.30;99.90;;;;;;5083891;28;19924;-75
2023/09/29 09:51:42;;;;;;;;;;;21.40;99.90;;;;;;5081630;28;19927;-74
2023/09/29 09:54:09;;;;;;;;;;;21.60;99.90;;;;;;5084046;28;19920;-74
2023/09/29 09:56:41;;;;;;;;;;;21.70;99.90;;;;;;5083271;28;19956;-74
2023/09/29 09:59:09;;;;;;;;;;;21.80;99.90;;;;;;5083635;28;19928;-74
2023/09/29 10:01:35;;;;;;;;;;;21.90;99.90;;;;;;5083647;28;19928;-74
2023/09/29 10:04:04;;;;;;;;;;;21.90;99.90;;;;;;5083315;28;19959;-74
2023/09/29 10:06:32;;;;;;;;;;;22.00;99.90;;;;;;5082650;28;19924;-73
2023/09/29 10:09:00;;;;;;;;;;;22.10;99.90;;;;;;5079113;28;19920;-74
2023/09/29 10:11:28;;;;;;;;;;;22.20;99.90;;;;;;5082667;28;19952;-74
2023/09/29 10:14:04;;;;;;;;;;;22.30;99.90;;;;;;5083074;28;19921;-74
2023/09/29 10:16:31;;;;;;;;;;;22.30;99.90;;;;;;5082744;28;20228;-74
2023/09/29 10:18:58;;;;;;;;;;;22.40;99.90;;;;;;5083032;28;19963;-74
2023/09/29 10:21:25;;;;;;;;;;;22.50;99.90;;;;;;5082752;28;19920;-74
2023/09/29 10:23:52;;;;;;;;;;;22.50;99.90;;;;;;5082974;28;19928;-73
2023/09/29 10:26:20;;;;;;;;;;;22.50;99.90;;;;;;5080959;28;19927;-74
2023/09/29 10:28:47;;;;;;;;;;;22.60;99.90;;;;;;5085756;28;19920;-73
2023/09/29 10:31:17;;;;;;;;;;;22.60;99.90;;;;;;5086898;28;20379;-74
2023/09/29 10:33:51;;;;;;;;;;;22.60;99.90;;;;;;5082596;28;19929;-73
2023/09/29 10:36:18;;;;;;;;;;;22.70;99.90;;;;;;5082900;28;20157;-74
2023/09/29 10:38:45;;;;;;;;;;;22.80;99.90;;;;;;5087347;28;20236;-75
2023/09/29 10:41:13;;;;;;;;;;;22.90;99.90;;;;;;5083049;28;19979;-75
2023/09/29 10:43:42;;;;;;;;;;;23.00;99.90;;;;;;5083802;28;20266;-75
2023/09/29 10:46:09;;;;;;;;;;;23.10;99.90;;;;;;5085737;28;19951;-74
2023/09/29 10:48:45;;;;;;;;;;;23.10;99.90;;;;;;5083124;28;20218;-74
2023/09/29 10:51:20;;;;;;;;;;;23.20;99.90;;;;;;5082715;28;20184;-74
2023/09/29 10:53:47;;;;;;;;;;;23.20;99.90;;;;;;5082661;28;19921;-74
2023/09/29 10:56:17;;;;;;;;;;;23.30;99.90;;;;;;5082310;28;19934;-74
2023/09/29 10:58:45;;;;;;;;;;;23.40;99.90;;;;;;5082281;28;19925;-73
2023/09/29 11:01:12;;;;;;;;;;;23.40;99.90;;;;;;5082252;28;19920;-74
2023/09/29 11:03:39;;;;;;;;;;;23.50;99.90;;;;;;5082624;28;19925;-73
2023/09/29 11:06:16;;;;;;;;;;;23.60;99.90;;;;;;5082426;28;19958;-73
2023/09/29 11:08:45;;;;;;;;;;;23.60;99.90;;;;;;5080691;28;19921;-74
2023/09/29 11:11:12;;;;;;;;;;;23.60;99.90;;;;;;5082658;28;20233;-74
2023/09/29 11:13:39;;;;;;;;;;;23.60;99.90;;;;;;5089327;28;19920;-73
2023/09/29 11:16:16;;;;;;;;;;;23.60;99.90;;;;;;5084502;28;19946;-74
2023/09/29 11:18:44;;;;;;;;;;;23.70;99.90;;;;;;5082331;28;19927;-75
2023/09/29 11:21:12;;;;;;;;;;;24.00;99.90;;;;;;5084122;28;19939;-74
2023/09/29 11:23:40;;;;;;;;;;;24.30;99.90;;;;;;5089629;28;19992;-75
2023/09/29 11:26:10;;;;;;;;;;;24.50;99.90;;;;;;5093570;28;19927;-76
2023/09/29 11:28:40;;;;;;;;;;;24.70;99.90;;;;;;5089721;28;20237;-75
2023/09/29 11:31:07;;;;;;;;;;;24.80;99.90;;;;;;5099439;28;19928;-75
2023/09/29 11:33:33;;;;;;;;;;;24.80;99.90;;;;;;5086273;28;19951;-75
2023/09/29 11:36:00;;;;;;;;;;;24.90;99.90;;;;;;5085430;28;19920;-74
2023/09/29 11:38:28;;;;;;;;;;;25.10;99.90;;;;;;5085989;28;19929;-74
2023/09/29 11:40:55;;;;;;;;;;;25.40;99.90;;;;;;5086130;28;19921;-75
2023/09/29 11:43:22;;;;;;;;;;;25.60;99.90;;;;;;5086179;28;19991;-75
2023/09/29 11:45:48;;;;;;;;;;;25.80;99.90;;;;;;5090373;28;19920;-75
2023/09/29 11:48:15;;;;;;;;;;;25.90;99.90;;;;;;5085976;28;19928;-74
2023/09/29 11:50:41;;;;;;;;;;;26.00;99.90;;;;;;5085973;28;19956;-71
2023/09/29 11:53:08;;;;;;;;;;;26.20;99.90;;;;;;5085862;28;19956;-71
2023/09/29 11:55:37;;;;;;;;;;;26.30;99.90;;;;;;5084885;28;19920;-70
2023/09/29 11:58:04;;;;;;;;;;;26.40;99.90;;;;;;5085419;28;19978;-70
2023/09/29 12:00:31;;;;;;;;;;;26.50;99.90;;;;;;5085432;28;19975;-71
2023/09/29 12:02:58;;;;;;;;;;;26.60;99.90;;;;;;5085341;28;19920;-75
2023/09/29 12:05:25;;;;;;;;;;;26.80;99.90;;;;;;5085118;28;19987;-72
2023/09/29 12:07:53;;;;;;;;;;;26.90;99.90;;;;;;5085680;28;19954;-75
2023/09/29 12:10:20;;;;;;;;;;;27.10;99.90;;;;;;5085542;28;19928;-74
2023/09/29 12:12:48;;;;;;;;;;;27.20;99.90;;;;;;5085250;28;19935;-74
2023/09/29 12:15:16;;;;;;;;;;;27.20;99.90;;;;;;5084921;28;20167;-75
2023/09/29 12:17:42;;;;;;;;;;;27.20;99.90;;;;;;5085466;28;19927;-74
2023/09/29 12:20:13;;;;;;;;;;;27.30;99.90;;;;;;5085522;28;19920;-75
2023/09/29 12:22:43;;;;;;;;;;;27.40;99.90;;;;;;5085387;28;19926;-73
2023/09/29 12:25:11;;;;;;;;;;;27.40;99.90;;;;;;5084493;28;19921;-73
2023/09/29 12:27:38;;;;;;;;;;;27.40;99.90;;;;;;5085321;28;19920;-70
2023/09/29 12:30:08;;;;;;;;;;;27.40;99.90;;;;;;5084987;28;19921;-71
2023/09/29 12:32:35;;;;;;;;;;;27.30;99.90;;;;;;5089903;28;19924;-70
2023/09/29 12:35:01;;;;;;;;;;;27.30;99.90;;;;;;5084470;28;19955;-71
2023/09/29 12:37:28;;;;;;;;;;;27.30;99.90;;;;;;5078916;28;19920;-73
2023/09/29 12:39:55;;;;;;;;;;;27.40;99.90;;;;;;5084739;28;19963;-73
2023/09/29 12:42:21;;;;;;;;;;;27.60;99.90;;;;;;5080148;28;20261;-73
2023/09/29 12:44:49;;;;;;;;;;;27.80;99.90;;;;;;5084504;28;20237;-73
2023/09/29 12:47:17;;;;;;;;;;;27.90;99.90;;;;;;5079670;28;19921;-73
2023/09/29 12:49:43;;;;;;;;;;;27.90;99.90;;;;;;5083032;28;20282;-73
2023/09/29 12:52:10;;;;;;;;;;;28.00;99.90;;;;;;5081879;28;19935;-74
2023/09/29 12:54:38;;;;;;;;;;;28.10;99.90;;;;;;5083102;28;19928;-74
2023/09/29 12:57:05;;;;;;;;;;;28.30;99.90;;;;;;5083118;28;20099;-74
2023/09/29 12:59:35;;;;;;;;;;;28.50;99.90;;;;;;5079599;28;19956;-74
2023/09/29 13:02:02;;;;;;;;;;;28.50;99.90;;;;;;5076221;28;19929;-74
2023/09/29 13:04:30;;;;;;;;;;;28.20;99.90;;;;;;5077937;28;20191;-73
2023/09/29 13:06:57;;;;;;;;;;;28.00;99.90;;;;;;5079705;28;19952;-73
2023/09/29 13:09:24;;;;;;;;;;;27.90;99.90;;;;;;5076128;28;20033;-74
2023/09/29 13:11:51;;;;;;;;;;;28.00;99.90;;;;;;5085675;28;19993;-73
2023/09/29 13:14:18;;;;;;;;;;;28.00;99.90;;;;;;5084192;28;19921;-73
2023/09/29 13:16:44;;;;;;;;;;;28.20;99.90;;;;;;5086294;28;20238;-74
2023/09/29 13:19:11;;;;;;;;;;;28.20;99.90;;;;;;5079371;28;20182;-74
2023/09/29 13:21:40;;;;;;;;;;;28.40;99.90;;;;;;5084252;28;19920;-74
2023/09/29 13:24:06;;;;;;;;;;;28.70;99.90;;;;;;5079676;28;19952;-74
2023/09/29 13:26:33;;;;;;;;;;;28.90;99.90;;;;;;5083743;28;19987;-74
2023/09/29 13:28:59;;;;;;;;;;;28.90;99.90;;;;;;5084106;28;19991;-74
2023/09/29 13:31:27;;;;;;;;;;;28.90;99.90;;;;;;5083998;28;19928;-74
2023/09/29 13:33:53;;;;;;;;;;;29.00;99.90;;;;;;5084163;28;19926;-74
2023/09/29 13:36:20;;;;;;;;;;;29.00;99.90;;;;;;5078719;28;20258;-74
2023/09/29 13:38:48;;;;;;;;;;;29.20;99.90;;;;;;5079027;28;20246;-74
2023/09/29 13:41:15;;;;;;;;;;;29.30;99.90;;;;;;5079071;28;19962;-74
2023/09/29 13:43:42;;;;;;;;;;;29.00;99.90;;;;;;5083623;28;19920;-74
2023/09/29 13:46:09;;;;;;;;;;;28.90;99.90;;;;;;5083521;28;19921;-74
2023/09/29 13:48:37;;;;;;;;;;;28.80;99.90;;;;;;5079187;28;19948;-74
2023/09/29 13:51:04;;;;;;;;;;;28.70;99.90;;;;;;5083490;28;19920;-73
2023/09/29 13:53:31;;;;;;;;;;;28.60;99.90;;;;;;5078256;28;19924;-74
2023/09/29 13:55:59;;;;;;;;;;;28.70;99.90;;;;;;5082741;28;19973;-74
2023/09/29 13:58:25;;;;;;;;;;;28.60;99.90;;;;;;5083334;28;19980;-73
2023/09/29 14:00:52;;;;;;;;;;;28.40;99.90;;;;;;5077668;28;19929;-73
2023/09/29 14:03:19;;;;;;;;;;;28.40;99.90;;;;;;5081855;28;19920;-74
2023/09/29 14:05:45;;;;;;;;;;;28.60;99.90;;;;;;5071925;28;19987;-73
2023/09/29 14:08:12;;;;;;;;;;;28.80;99.90;;;;;;5083612;28;19988;-73
2023/09/29 14:10:39;;;;;;;;;;;29.00;99.90;;;;;;5082433;28;19983;-73
2023/09/29 14:13:07;;;;;;;;;;;29.20;99.90;;;;;;5083662;28;19988;-73
2023/09/29 14:15:33;;;;;;;;;;;29.30;99.90;;;;;;5078194;28;19928;-74
2023/09/29 14:18:00;;;;;;;;;;;29.40;99.90;;;;;;5086631;28;19952;-73